Liste des engagé(e)s
Classement
PDF
   
         
   
 
Pos N° Nom Prénom Pays Temps Ecart Pl. Cat. Pl. Sexe Club
1 124 JEUNE Antoine 00:16:26 1 SE 1 M
2 115 FELLAGUE Ali 00:16:29 03 1 V1 2 M
3 48 PLAGNEUX Guillaume 00:17:15 49 1 ES 3 M FAC ANDREZIEUX
4 126 ABRY Philippe 00:17:23 57 2 SE 4 M
5 121 ABATE Jean-François 00:17:24 58 2 V1 5 M
6 114 COMPAGNE Etienne 00:17:51 01:25 1 CA 6 M
7 72 JEANNON Dimitri 00:18:00 01:34 2 CA 7 M FAC ANDREZIEUX
8 2 TOURNIER Nicolas 00:18:12 01:46 3 V1 8 M
9 56 BONNIER Sylvain 00:18:14 01:48 4 V1 9 M S/L CAMN VILLEURBANNE
10 117 SOULARD Julien 00:18:22 01:56 3 SE 10 M
11 84 MONCOUDIOL Romain 00:18:49 02:23 4 SE 11 M
12 119 SOLIAC Thibaut 00:18:56 02:30 2 ES 12 M
13 125 BOY Ludovic 00:19:00 02:34 5 SE 13 M
14 76 BASTIDE LOIC 00:19:05 02:39 3 CA 14 M ATHLE CALADE VAL DE SAONE *
15 49 COMBET Maxence 00:19:46 03:20 3 ES 15 M FAC ANDREZIEUX
16 261 BOULEDRAK Radoin 00:19:54 03:28 5 V1 16 M
17 9 BULAND Dimitri 00:20:11 03:45 6 V1 17 M
18 74 HAMIDI Badir 00:20:15 03:49 6 SE 18 M
19 54 DUSSAUGE Quentin 00:20:18 03:52 4 CA 19 M
20 97 BILLIEZ Hugo 00:20:23 03:57 5 CA 20 M Fuji Yama
21 45 HUSTACHE Daniel 00:20:54 04:28 7 SE 21 M
22 75 EMIN Paul 00:21:09 04:43 1 JU 22 M
23 120 ESTRADE Elise 00:21:10 04:44 1 CA 1 F
24 64 CLAISSE Daphné 00:21:23 04:57 2 CA 2 F
25 25 QUEROIX Laetitia 00:21:45 05:19 1 SE 3 F AS CALUIRE ET CUIRE
26 93 BRETON Anthony 00:22:09 05:43 8 SE 23 M Fuji Yama
27 21 FOURNIER Baptiste 00:22:20 05:54 1 MI 24 M
28 122 GAUTHIER Romain 00:22:26 06:00 9 SE 25 M
29 19 DALL AGNOL Nicolas 00:22:37 06:11 7 V1 26 M
30 30 VIDAL Cassie 00:22:48 06:22 1 JU 4 F AS CALUIRE ET CUIRE
31 55 RANNOU Pierre 00:22:53 06:27 10 SE 27 M
32 37 BRETIN Simon 00:23:20 06:54 1 V3 28 M
33 20 TECHER Aidée 00:23:34 07:08 1 V1 5 F
34 23 MOREAU VIDON LUCAS 00:23:38 07:12 2 MI 29 M
35 42 ARQUILLIERE LUCAS 00:23:42 07:16 3 MI 30 M
36 51 BASSALER REGIS 00:24:01 07:35 8 V1 31 M
37 340 GUERRY Eric 00:24:10 07:44 1 V2 32 M AS Caluire
38 94 BRETON Mickaël 00:24:11 07:45 11 SE 33 M Fuji Yama
39 367 BOURHRINE Tarik 00:24:32 08:06 9 V1 34 M
40 78 DOULCET Pauline 00:24:33 08:07 1 MI 6 F Saint Priest Triathlon
41 18 PETTENUZZO STEPHANE 00:24:56 08:30 2 V2 35 M
42 41 LAURENT Stéphane 00:25:17 08:51 10 V1 36 M
43 118 DURY Bastien 00:25:30 09:04 4 ES 37 M
44 60 RANNOU Olivier 00:26:07 09:41 12 SE 38 M
45 73 ARCHER Clarence 00:26:11 09:45 3 CA 7 F FAC ANDREZIEUX
46 28 BACHELET Ilana 00:26:11 09:45 2 JU 8 F
47 113 SAMOĂ‹L Yann 00:26:16 09:50 11 V1 39 M
48 95 RAY Norma 00:26:24 09:58 2 SE 9 F Fuji Yama
49 100 MORLET Fabien 00:26:41 10:15 12 V1 40 M Fuji Yama
50 92 BRETON Charly 00:26:48 10:22 6 CA 41 M Fuji Yama
51 31 BIZET Alexis 00:27:03 10:37 7 CA 42 M
52 86 ROL Antoine 00:27:03 10:37 8 CA 43 M
53 44 VINCENDEAU THIBAUD 00:27:05 10:39 13 SE 44 M
54 88 LUYA Maxence 00:27:06 10:40 9 CA 45 M
55 101 RADJOUKI Laetitia 00:27:31 11:05 2 MI 10 F Fuji Yama
56 87 ROL Stéphane 00:27:33 11:07 13 V1 46 M AS Caluire
57 104 OUMEDDOUR Nassim 00:27:40 11:14 14 SE 47 M Fuji Yama
58 98 DESCAILLOT Axel 00:27:46 11:20 4 MI 48 M Fuji Yama
59 99 DESCAILLOT Patrick 00:27:46 11:20 3 V2 49 M Fuji Yama
60 57 REMADNA Ouda 00:27:59 11:33 2 V1 11 F
61 77 SMATI JULIEN 00:28:08 11:42 14 V1 50 M
62 293 RANNOU Paul 00:28:13 11:47 2 V3 51 M
63 17 GABOLDE Hugo 00:28:34 12:08 15 SE 52 M
64 10 FALCON Yolene 00:28:44 12:18 3 SE 12 F
65 106 EZZEROUALI Sofiene 00:28:52 12:26 16 SE 53 M Fuji Yama
66 70 BOURGEOIS Marie 00:29:11 12:45 4 CA 13 F
67 69 VINCENDET ALEXANDRE 00:29:21 12:55 15 V1 54 M
68 140 DAAS Abdlhafid 00:29:23 12:57 4 V2 55 M
69 62 CARRON Patricia 00:29:43 13:17 4 SE 14 F
70 65 COSTANTINI Julien 00:30:16 13:50 17 SE 56 M
71 29 HA Rosaline 00:30:31 14:05 5 SE 15 F
72 201 ALVES Anabela 00:30:35 14:09 3 V1 16 F
73 128 BERNABEU Alyson 00:30:56 14:30 6 SE 17 F
74 27 BACHELET Frédéric 00:30:56 14:30 5 V2 57 M
75 96 BILLIEZ Noa 00:30:56 14:30 1 BE 58 M Fuji Yama
76 85 ROL Baptiste 00:31:08 14:42 5 MI 59 M
77 129 FROMENT CĂ©cile 00:31:49 15:23 7 SE 18 F
78 58 BERNOUD Anne 00:31:50 15:24 4 V1 19 F
79 79 GRATTENOIX ÉP BOUDJADJA Laetitia 00:32:07 15:41 8 SE 20 F
80 91 DALBAEK Emilie 00:32:13 15:47 9 SE 21 F
81 8 VALFORT JOSETTE 00:32:15 15:49 1 V3 22 F
82 52 PRUDHON Raphaelle 00:32:18 15:52 5 V1 23 F
83 53 ROBIN Charlotte 00:32:24 15:58 10 SE 24 F ASC BALAN
84 59 MARCHE Frédéric 00:32:29 16:03 16 V1 60 M
85 43 MARCHE Christelle 00:32:29 16:03 6 V1 25 F
86 112 CAMILLERI Marie-Hélène 00:33:11 16:45 7 V1 26 F
87 26 HOUZET William 00:34:36 18:10 18 SE 61 M
88 80 REDJIMI RĂ©baĂŻa 00:34:37 18:11 1 V2 27 F ASCS
89 82 ANSELME Marcel 00:34:40 18:14 6 V2 62 M
90 47 MOREAU Laurine 00:34:44 18:18 11 SE 28 F
91 5 CLOUTIER Eloise 00:35:42 19:16 12 SE 29 F
92 3 BORDONE Catherine 00:35:51 19:25 2 V2 30 F
93 127 RAMAGE Leslie 00:35:58 19:32 1 ES 31 F
94 109 GUIBAUD Adeline 00:36:40 20:14 8 V1 32 F
95 110 FOMBONNE Hélène 00:37:37 21:11 9 V1 33 F
96 61 KERMADI SAIDA 00:37:37 21:11 3 V2 34 F
97 7 ALAVOINE Morgane 00:37:45 21:19 13 SE 35 F
98 12 CODIS Francois 00:38:05 21:39 19 SE 63 M
99 208 RENO Patrick 00:38:09 21:43 7 V2 64 M
100 13 BOSQUIER Stéphanie 00:38:12 21:46 14 SE 36 F
101 108 BEGUET Stéphanie 00:38:42 22:16 10 V1 37 F
102 81 ANSELME Catherine 00:38:43 22:17 4 V2 38 F
103 33 LAMPIN Adeline 00:39:13 22:47 15 SE 39 F
104 83 PATAMIA Marie-Thérèse 00:39:16 22:50 5 V2 40 F
105 6 THOURON RĂ©gine 00:40:04 23:38 6 V2 41 F
106 116 MABBOUX Claire 00:40:04 23:38 11 V1 42 F ASCS
107 46 MAHISTRE DAMIEN 00:42:12 25:46 20 SE 65 M
108 22 MAHISTRE CHRISTELLE 00:42:14 25:48 12 V1 43 F
109 24 BERTILLER CAROLE 00:42:14 25:48 7 V2 44 F
110 71 DEUTSCH Damaris 00:42:14 25:48 16 SE 45 F
111 105 CAMIER BĂ©atrice 00:43:32 27:06 8 V2 46 F
112 40 JOANNAUD Johann 00:56:57 40:31 21 SE 66 M
  La Band'Rill Courir pour Cassie 5km - Timing Perf Event 2017
 
Nombre ou lettres (3 minimum)
Classement    
Filtre :
Rang :